sensor_id;sensor_type;location;lat;lon;timestamp;temperature;humidity
28725;DHT22;43472;48.980;9.646;2023-04-30T00:03:42;12.20;99.90
28725;DHT22;43472;48.980;9.646;2023-04-30T00:08:44;12.10;99.90
28725;DHT22;43472;48.980;9.646;2023-04-30T00:13:46;12.10;99.90
28725;DHT22;43472;48.980;9.646;2023-04-30T00:18:48;12.00;99.90
28725;DHT22;43472;48.980;9.646;2023-04-30T00:23:50;12.00;99.90
28725;DHT22;43472;48.980;9.646;2023-04-30T00:28:52;12.00;99.90
28725;DHT22;43472;48.980;9.646;2023-04-30T00:33:53;12.00;99.90
28725;DHT22;43472;48.980;9.646;2023-04-30T00:38:55;12.10;99.90
28725;DHT22;43472;48.980;9.646;2023-04-30T00:43:57;12.10;99.90
28725;DHT22;43472;48.980;9.646;2023-04-30T00:49:02;12.00;99.90
28725;DHT22;43472;48.980;9.646;2023-04-30T00:54:06;12.00;99.90
28725;DHT22;43472;48.980;9.646;2023-04-30T00:59:09;12.00;99.90
28725;DHT22;43472;48.980;9.646;2023-04-30T01:04:14;12.20;99.90
28725;DHT22;43472;48.980;9.646;2023-04-30T01:09:16;12.00;99.90
28725;DHT22;43472;48.980;9.646;2023-04-30T01:19:42;11.90;99.90
28725;DHT22;43472;48.980;9.646;2023-04-30T01:25:12;11.90;99.90
28725;DHT22;43472;48.980;9.646;2023-04-30T01:30:16;11.90;99.90
28725;DHT22;43472;48.980;9.646;2023-04-30T01:35:19;11.90;99.90
28725;DHT22;43472;48.980;9.646;2023-04-30T01:40:46;11.90;99.90
28725;DHT22;43472;48.980;9.646;2023-04-30T01:46:28;13.10;99.90
28725;DHT22;43472;48.980;9.646;2023-04-30T01:51:40;11.80;99.90
28725;DHT22;43472;48.980;9.646;2023-04-30T01:56:48;11.80;99.90
28725;DHT22;43472;48.980;9.646;2023-04-30T02:01:52;11.80;99.90
28725;DHT22;43472;48.980;9.646;2023-04-30T02:06:54;11.80;99.90
28725;DHT22;43472;48.980;9.646;2023-04-30T02:11:56;11.70;99.90
28725;DHT22;43472;48.980;9.646;2023-04-30T02:16:58;11.70;99.90
28725;DHT22;43472;48.980;9.646;2023-04-30T02:22:00;11.70;99.90
28725;DHT22;43472;48.980;9.646;2023-04-30T02:27:02;11.80;99.90
28725;DHT22;43472;48.980;9.646;2023-04-30T02:32:04;11.60;99.90
28725;DHT22;43472;48.980;9.646;2023-04-30T02:37:06;11.70;99.90
28725;DHT22;43472;48.980;9.646;2023-04-30T02:42:08;11.70;99.90
28725;DHT22;43472;48.980;9.646;2023-04-30T02:47:10;11.70;99.90
28725;DHT22;43472;48.980;9.646;2023-04-30T02:52:12;11.70;99.90
28725;DHT22;43472;48.980;9.646;2023-04-30T02:57:14;11.70;99.90
28725;DHT22;43472;48.980;9.646;2023-04-30T03:02:16;11.60;99.90
28725;DHT22;43472;48.980;9.646;2023-04-30T03:07:21;11.60;99.90
28725;DHT22;43472;48.980;9.646;2023-04-30T03:12:23;11.60;99.90
28725;DHT22;43472;48.980;9.646;2023-04-30T03:17:25;11.50;99.90
28725;DHT22;43472;48.980;9.646;2023-04-30T03:22:27;11.50;99.90
28725;DHT22;43472;48.980;9.646;2023-04-30T03:27:28;11.50;99.90
28725;DHT22;43472;48.980;9.646;2023-04-30T03:32:30;11.40;99.90
28725;DHT22;43472;48.980;9.646;2023-04-30T03:37:33;11.50;99.90
28725;DHT22;43472;48.980;9.646;2023-04-30T03:42:35;11.50;99.90
28725;DHT22;43472;48.980;9.646;2023-04-30T03:47:36;11.40;99.90
28725;DHT22;43472;48.980;9.646;2023-04-30T03:52:38;11.40;99.90
28725;DHT22;43472;48.980;9.646;2023-04-30T03:57:40;11.40;99.90
28725;DHT22;43472;48.980;9.646;2023-04-30T04:02:43;11.50;99.90
28725;DHT22;43472;48.980;9.646;2023-04-30T04:07:48;11.40;99.90
28725;DHT22;43472;48.980;9.646;2023-04-30T04:12:49;11.40;99.90
28725;DHT22;43472;48.980;9.646;2023-04-30T04:17:51;11.40;99.90
28725;DHT22;43472;48.980;9.646;2023-04-30T04:22:53;11.40;99.90
28725;DHT22;43472;48.980;9.646;2023-04-30T04:27:55;11.30;99.90
28725;DHT22;43472;48.980;9.646;2023-04-30T04:32:57;11.30;99.90
28725;DHT22;43472;48.980;9.646;2023-04-30T04:37:59;11.40;99.90
28725;DHT22;43472;48.980;9.646;2023-04-30T04:43:02;11.40;99.90
28725;DHT22;43472;48.980;9.646;2023-04-30T04:48:04;11.40;99.90
28725;DHT22;43472;48.980;9.646;2023-04-30T04:53:07;11.40;99.90
28725;DHT22;43472;48.980;9.646;2023-04-30T04:58:08;11.40;99.90
28725;DHT22;43472;48.980;9.646;2023-04-30T05:03:10;11.40;99.90
28725;DHT22;43472;48.980;9.646;2023-04-30T05:08:13;11.40;99.90
28725;DHT22;43472;48.980;9.646;2023-04-30T05:13:15;11.30;99.90
28725;DHT22;43472;48.980;9.646;2023-04-30T05:18:16;11.50;99.90
28725;DHT22;43472;48.980;9.646;2023-04-30T05:38:25;11.50;99.90
28725;DHT22;43472;48.980;9.646;2023-04-30T05:43:27;11.80;99.90
28725;DHT22;43472;48.980;9.646;2023-04-30T05:48:29;11.70;99.90
28725;DHT22;43472;48.980;9.646;2023-04-30T05:53:31;12.50;99.90
28725;DHT22;43472;48.980;9.646;2023-04-30T06:03:36;11.80;99.90
28725;DHT22;43472;48.980;9.646;2023-04-30T06:08:38;11.90;99.90
28725;DHT22;43472;48.980;9.646;2023-04-30T06:13:46;11.80;99.90
28725;DHT22;43472;48.980;9.646;2023-04-30T06:18:48;11.90;99.90
28725;DHT22;43472;48.980;9.646;2023-04-30T06:23:54;12.90;99.90
28725;DHT22;43472;48.980;9.646;2023-04-30T06:28:56;12.20;99.90
28725;DHT22;43472;48.980;9.646;2023-04-30T06:33:58;12.50;99.90
28725;DHT22;43472;48.980;9.646;2023-04-30T06:39:00;12.70;99.90
28725;DHT22;43472;48.980;9.646;2023-04-30T06:44:02;13.70;99.90
28725;DHT22;43472;48.980;9.646;2023-04-30T06:49:04;12.90;99.90
28725;DHT22;43472;48.980;9.646;2023-04-30T06:54:05;13.10;99.90
28725;DHT22;43472;48.980;9.646;2023-04-30T06:59:08;13.00;99.90
28725;DHT22;43472;48.980;9.646;2023-04-30T07:04:10;13.40;99.90
28725;DHT22;43472;48.980;9.646;2023-04-30T07:09:12;15.40;99.90
28725;DHT22;43472;48.980;9.646;2023-04-30T07:14:16;13.60;99.90
28725;DHT22;43472;48.980;9.646;2023-04-30T07:19:18;14.10;99.90
28725;DHT22;43472;48.980;9.646;2023-04-30T07:24:20;13.90;99.90
28725;DHT22;43472;48.980;9.646;2023-04-30T07:39:27;14.20;99.90
28725;DHT22;43472;48.980;9.646;2023-04-30T07:44:30;14.40;99.90
28725;DHT22;43472;48.980;9.646;2023-04-30T07:49:32;14.70;99.90
28725;DHT22;43472;48.980;9.646;2023-04-30T07:54:34;14.80;99.90
28725;DHT22;43472;48.980;9.646;2023-04-30T07:59:37;15.30;99.90
28725;DHT22;43472;48.980;9.646;2023-04-30T08:09:41;15.40;99.90
28725;DHT22;43472;48.980;9.646;2023-04-30T08:19:45;14.90;99.90
28725;DHT22;43472;48.980;9.646;2023-04-30T08:24:47;14.90;99.90
28725;DHT22;43472;48.980;9.646;2023-04-30T08:29:49;14.80;99.90
28725;DHT22;43472;48.980;9.646;2023-04-30T08:39:54;14.90;99.90
28725;DHT22;43472;48.980;9.646;2023-04-30T08:45:00;14.90;99.90
28725;DHT22;43472;48.980;9.646;2023-04-30T08:55:07;15.20;99.90
28725;DHT22;43472;48.980;9.646;2023-04-30T09:00:10;15.20;99.90
28725;DHT22;43472;48.980;9.646;2023-04-30T09:05:13;15.40;99.90
28725;DHT22;43472;48.980;9.646;2023-04-30T09:10:17;15.30;99.90
28725;DHT22;43472;48.980;9.646;2023-04-30T09:15:19;15.30;99.90
28725;DHT22;43472;48.980;9.646;2023-04-30T09:25:38;15.60;99.90
28725;DHT22;43472;48.980;9.646;2023-04-30T09:30:41;17.70;99.90
28725;DHT22;43472;48.980;9.646;2023-04-30T09:35:43;16.00;99.90
28725;DHT22;43472;48.980;9.646;2023-04-30T09:40:46;15.80;99.90
28725;DHT22;43472;48.980;9.646;2023-04-30T09:45:48;17.40;99.90
28725;DHT22;43472;48.980;9.646;2023-04-30T09:50:52;17.40;99.90
28725;DHT22;43472;48.980;9.646;2023-04-30T09:55:55;16.60;99.90
28725;DHT22;43472;48.980;9.646;2023-04-30T10:01:00;16.30;99.90
28725;DHT22;43472;48.980;9.646;2023-04-30T10:06:03;17.70;99.90
28725;DHT22;43472;48.980;9.646;2023-04-30T10:11:08;16.60;99.90
28725;DHT22;43472;48.980;9.646;2023-04-30T10:21:32;16.40;99.90
28725;DHT22;43472;48.980;9.646;2023-04-30T10:26:35;16.10;99.90
28725;DHT22;43472;48.980;9.646;2023-04-30T10:31:40;17.10;99.90
28725;DHT22;43472;48.980;9.646;2023-04-30T10:41:45;15.90;99.90
28725;DHT22;43472;48.980;9.646;2023-04-30T10:46:47;15.80;99.90
28725;DHT22;43472;48.980;9.646;2023-04-30T10:51:50;16.90;99.90
28725;DHT22;43472;48.980;9.646;2023-04-30T10:57:14;16.30;99.90
28725;DHT22;43472;48.980;9.646;2023-04-30T11:02:18;16.20;99.90
28725;DHT22;43472;48.980;9.646;2023-04-30T11:07:24;16.10;99.90
28725;DHT22;43472;48.980;9.646;2023-04-30T11:12:27;16.10;99.90
28725;DHT22;43472;48.980;9.646;2023-04-30T11:17:29;16.50;99.90
28725;DHT22;43472;48.980;9.646;2023-04-30T11:22:32;17.90;99.90
28725;DHT22;43472;48.980;9.646;2023-04-30T11:27:42;16.50;99.90
28725;DHT22;43472;48.980;9.646;2023-04-30T11:32:47;16.30;99.90
28725;DHT22;43472;48.980;9.646;2023-04-30T11:37:54;16.40;99.90
28725;DHT22;43472;48.980;9.646;2023-04-30T11:42:56;16.50;99.90
28725;DHT22;43472;48.980;9.646;2023-04-30T11:47:58;16.50;99.90
28725;DHT22;43472;48.980;9.646;2023-04-30T11:53:00;16.60;99.90
28725;DHT22;43472;48.980;9.646;2023-04-30T11:58:08;16.50;99.90
28725;DHT22;43472;48.980;9.646;2023-04-30T12:03:13;16.50;99.90
28725;DHT22;43472;48.980;9.646;2023-04-30T12:08:18;16.80;99.90
28725;DHT22;43472;48.980;9.646;2023-04-30T12:13:20;17.70;99.90
28725;DHT22;43472;48.980;9.646;2023-04-30T12:18:22;17.30;99.90
28725;DHT22;43472;48.980;9.646;2023-04-30T12:23:24;17.60;99.90
28725;DHT22;43472;48.980;9.646;2023-04-30T12:28:27;17.90;99.90
28725;DHT22;43472;48.980;9.646;2023-04-30T12:33:31;17.60;99.90
28725;DHT22;43472;48.980;9.646;2023-04-30T12:38:33;17.70;99.50
28725;DHT22;43472;48.980;9.646;2023-04-30T12:43:35;17.60;99.70
28725;DHT22;43472;48.980;9.646;2023-04-30T12:48:43;17.70;99.90
28725;DHT22;43472;48.980;9.646;2023-04-30T12:53:46;18.40;99.30
28725;DHT22;43472;48.980;9.646;2023-04-30T12:58:47;18.30;98.30
28725;DHT22;43472;48.980;9.646;2023-04-30T13:03:52;18.50;98.60
28725;DHT22;43472;48.980;9.646;2023-04-30T13:09:09;18.20;98.40
28725;DHT22;43472;48.980;9.646;2023-04-30T13:14:12;18.20;98.70
28725;DHT22;43472;48.980;9.646;2023-04-30T13:19:15;18.40;99.50
28725;DHT22;43472;48.980;9.646;2023-04-30T13:24:17;18.50;98.60
28725;DHT22;43472;48.980;9.646;2023-04-30T13:29:35;19.00;98.80
28725;DHT22;43472;48.980;9.646;2023-04-30T13:34:52;19.60;95.40
28725;DHT22;43472;48.980;9.646;2023-04-30T13:39:56;19.70;95.50
28725;DHT22;43472;48.980;9.646;2023-04-30T13:44:58;19.60;96.40
28725;DHT22;43472;48.980;9.646;2023-04-30T13:50:01;20.40;93.70
28725;DHT22;43472;48.980;9.646;2023-04-30T13:55:07;20.30;94.10
28725;DHT22;43472;48.980;9.646;2023-04-30T14:00:13;20.10;93.40
28725;DHT22;43472;48.980;9.646;2023-04-30T14:05:17;20.10;94.00
28725;DHT22;43472;48.980;9.646;2023-04-30T14:10:19;19.80;94.40
28725;DHT22;43472;48.980;9.646;2023-04-30T14:15:21;19.50;94.00
28725;DHT22;43472;48.980;9.646;2023-04-30T14:20:34;20.00;93.90
28725;DHT22;43472;48.980;9.646;2023-04-30T14:25:36;19.70;94.20
28725;DHT22;43472;48.980;9.646;2023-04-30T14:30:38;20.30;93.50
28725;DHT22;43472;48.980;9.646;2023-04-30T14:35:40;20.60;92.70
28725;DHT22;43472;48.980;9.646;2023-04-30T14:40:42;20.40;94.10
28725;DHT22;43472;48.980;9.646;2023-04-30T14:45:44;20.50;92.70
28725;DHT22;43472;48.980;9.646;2023-04-30T14:50:46;20.90;92.90
28725;DHT22;43472;48.980;9.646;2023-04-30T14:55:49;20.40;93.00
28725;DHT22;43472;48.980;9.646;2023-04-30T15:00:51;19.50;92.70
28725;DHT22;43472;48.980;9.646;2023-04-30T15:05:53;19.20;93.10
28725;DHT22;43472;48.980;9.646;2023-04-30T15:10:55;19.00;93.40
28725;DHT22;43472;48.980;9.646;2023-04-30T15:15:57;19.40;93.10
28725;DHT22;43472;48.980;9.646;2023-04-30T15:20:59;19.90;93.10
28725;DHT22;43472;48.980;9.646;2023-04-30T15:26:02;19.70;93.00
28725;DHT22;43472;48.980;9.646;2023-04-30T15:31:05;19.90;92.90
28725;DHT22;43472;48.980;9.646;2023-04-30T15:36:22;19.90;92.80
28725;DHT22;43472;48.980;9.646;2023-04-30T15:41:40;19.90;93.20
28725;DHT22;43472;48.980;9.646;2023-04-30T15:46:42;19.80;93.70
28725;DHT22;43472;48.980;9.646;2023-04-30T15:51:44;20.00;93.00
28725;DHT22;43472;48.980;9.646;2023-04-30T15:57:01;19.80;92.90
28725;DHT22;43472;48.980;9.646;2023-04-30T16:02:05;19.90;92.40
28725;DHT22;43472;48.980;9.646;2023-04-30T16:07:22;19.50;92.50
28725;DHT22;43472;48.980;9.646;2023-04-30T16:12:24;19.20;92.80
28725;DHT22;43472;48.980;9.646;2023-04-30T16:17:27;18.80;93.40
28725;DHT22;43472;48.980;9.646;2023-04-30T16:22:29;18.60;93.60
28725;DHT22;43472;48.980;9.646;2023-04-30T16:27:31;18.20;93.30
28725;DHT22;43472;48.980;9.646;2023-04-30T16:32:37;17.80;94.00
28725;DHT22;43472;48.980;9.646;2023-04-30T16:37:42;17.80;94.30
28725;DHT22;43472;48.980;9.646;2023-04-30T16:42:45;16.10;94.20
28725;DHT22;43472;48.980;9.646;2023-04-30T16:47:50;17.90;94.60
28725;DHT22;43472;48.980;9.646;2023-04-30T16:53:07;17.70;95.50
28725;DHT22;43472;48.980;9.646;2023-04-30T16:58:11;17.60;95.30
28725;DHT22;43472;48.980;9.646;2023-04-30T17:03:13;17.30;96.10
28725;DHT22;43472;48.980;9.646;2023-04-30T17:08:30;17.30;95.40
28725;DHT22;43472;48.980;9.646;2023-04-30T17:13:47;17.20;96.10
28725;DHT22;43472;48.980;9.646;2023-04-30T17:18:49;17.10;96.40
28725;DHT22;43472;48.980;9.646;2023-04-30T17:23:51;17.00;97.70
28725;DHT22;43472;48.980;9.646;2023-04-30T17:28:53;16.90;97.50
28725;DHT22;43472;48.980;9.646;2023-04-30T17:34:00;16.70;99.70
28725;DHT22;43472;48.980;9.646;2023-04-30T17:39:05;16.60;99.90
28725;DHT22;43472;48.980;9.646;2023-04-30T17:44:09;16.40;99.90
28725;DHT22;43472;48.980;9.646;2023-04-30T17:49:12;16.30;99.90
28725;DHT22;43472;48.980;9.646;2023-04-30T17:54:14;16.10;99.90
28725;DHT22;43472;48.980;9.646;2023-04-30T17:59:16;15.90;99.90
28725;DHT22;43472;48.980;9.646;2023-04-30T18:04:18;12.70;99.90
28725;DHT22;43472;48.980;9.646;2023-04-30T18:09:36;15.50;99.90
28725;DHT22;43472;48.980;9.646;2023-04-30T18:14:38;15.40;99.90
28725;DHT22;43472;48.980;9.646;2023-04-30T18:19:40;15.30;99.90
28725;DHT22;43472;48.980;9.646;2023-04-30T18:24:45;15.10;99.90
28725;DHT22;43472;48.980;9.646;2023-04-30T18:29:47;15.00;99.90
28725;DHT22;43472;48.980;9.646;2023-04-30T18:34:50;14.80;99.90
28725;DHT22;43472;48.980;9.646;2023-04-30T18:39:52;14.60;99.90
28725;DHT22;43472;48.980;9.646;2023-04-30T18:44:55;14.50;99.90
28725;DHT22;43472;48.980;9.646;2023-04-30T18:50:00;14.20;99.90
28725;DHT22;43472;48.980;9.646;2023-04-30T18:55:02;14.20;99.90
28725;DHT22;43472;48.980;9.646;2023-04-30T19:00:10;13.90;99.90
28725;DHT22;43472;48.980;9.646;2023-04-30T19:05:18;13.90;99.90
28725;DHT22;43472;48.980;9.646;2023-04-30T19:10:36;13.80;99.90
28725;DHT22;43472;48.980;9.646;2023-04-30T19:15:41;13.60;99.90
28725;DHT22;43472;48.980;9.646;2023-04-30T19:22:04;13.50;99.90
28725;DHT22;43472;48.980;9.646;2023-04-30T19:27:06;13.50;99.90
28725;DHT22;43472;48.980;9.646;2023-04-30T19:32:07;13.40;99.90
28725;DHT22;43472;48.980;9.646;2023-04-30T19:37:10;13.60;99.90
28725;DHT22;43472;48.980;9.646;2023-04-30T19:42:12;13.40;99.90
28725;DHT22;43472;48.980;9.646;2023-04-30T19:47:14;13.30;99.90
28725;DHT22;43472;48.980;9.646;2023-04-30T19:52:16;13.00;99.90
28725;DHT22;43472;48.980;9.646;2023-04-30T19:57:18;12.90;99.90
28725;DHT22;43472;48.980;9.646;2023-04-30T20:02:19;12.80;99.90
28725;DHT22;43472;48.980;9.646;2023-04-30T20:07:21;13.50;99.90
28725;DHT22;43472;48.980;9.646;2023-04-30T20:12:23;12.60;99.90
28725;DHT22;43472;48.980;9.646;2023-04-30T20:17:25;12.50;99.90
28725;DHT22;43472;48.980;9.646;2023-04-30T20:22:28;12.50;99.90
28725;DHT22;43472;48.980;9.646;2023-04-30T20:27:30;12.30;99.90
28725;DHT22;43472;48.980;9.646;2023-04-30T20:32:32;12.30;99.90
28725;DHT22;43472;48.980;9.646;2023-04-30T20:37:36;12.10;99.90
28725;DHT22;43472;48.980;9.646;2023-04-30T20:42:38;12.10;99.90
28725;DHT22;43472;48.980;9.646;2023-04-30T20:47:41;11.90;99.90
28725;DHT22;43472;48.980;9.646;2023-04-30T20:52:43;11.90;99.90
28725;DHT22;43472;48.980;9.646;2023-04-30T20:57:44;11.70;99.90
28725;DHT22;43472;48.980;9.646;2023-04-30T21:07:49;11.60;99.90
28725;DHT22;43472;48.980;9.646;2023-04-30T21:12:51;13.70;99.90
28725;DHT22;43472;48.980;9.646;2023-04-30T21:17:53;11.50;99.90
28725;DHT22;43472;48.980;9.646;2023-04-30T21:22:55;11.50;99.90
28725;DHT22;43472;48.980;9.646;2023-04-30T21:27:57;11.40;99.90
28725;DHT22;43472;48.980;9.646;2023-04-30T21:32:59;11.70;99.90
28725;DHT22;43472;48.980;9.646;2023-04-30T21:38:01;11.20;99.90
28725;DHT22;43472;48.980;9.646;2023-04-30T21:43:03;11.50;99.90
28725;DHT22;43472;48.980;9.646;2023-04-30T21:48:05;11.20;99.90
28725;DHT22;43472;48.980;9.646;2023-04-30T21:53:07;11.30;99.90
28725;DHT22;43472;48.980;9.646;2023-04-30T21:58:10;11.00;99.90
28725;DHT22;43472;48.980;9.646;2023-04-30T22:08:16;10.80;99.90
28725;DHT22;43472;48.980;9.646;2023-04-30T22:13:18;10.80;99.90
28725;DHT22;43472;48.980;9.646;2023-04-30T22:18:20;10.90;99.90
28725;DHT22;43472;48.980;9.646;2023-04-30T22:23:23;12.20;99.90
28725;DHT22;43472;48.980;9.646;2023-04-30T22:28:24;10.70;99.90
28725;DHT22;43472;48.980;9.646;2023-04-30T22:33:27;10.70;99.90
28725;DHT22;43472;48.980;9.646;2023-04-30T22:38:29;10.60;99.90
28725;DHT22;43472;48.980;9.646;2023-04-30T22:43:31;10.50;99.90
28725;DHT22;43472;48.980;9.646;2023-04-30T22:53:36;10.50;99.90
28725;DHT22;43472;48.980;9.646;2023-04-30T22:58:39;10.40;99.90
28725;DHT22;43472;48.980;9.646;2023-04-30T23:03:40;10.40;99.90
28725;DHT22;43472;48.980;9.646;2023-04-30T23:08:42;10.40;99.90
28725;DHT22;43472;48.980;9.646;2023-04-30T23:13:44;10.40;99.90
28725;DHT22;43472;48.980;9.646;2023-04-30T23:18:46;10.30;99.90
28725;DHT22;43472;48.980;9.646;2023-04-30T23:23:49;10.20;99.90
28725;DHT22;43472;48.980;9.646;2023-04-30T23:28:51;10.30;99.90
28725;DHT22;43472;48.980;9.646;2023-04-30T23:33:53;10.40;99.90
28725;DHT22;43472;48.980;9.646;2023-04-30T23:38:54;10.30;99.90
28725;DHT22;43472;48.980;9.646;2023-04-30T23:43:56;10.20;99.90
28725;DHT22;43472;48.980;9.646;2023-04-30T23:48:58;10.30;99.90
28725;DHT22;43472;48.980;9.646;2023-04-30T23:54:00;10.20;99.90
28725;DHT22;43472;48.980;9.646;2023-04-30T23:59:01;10.10;99.90
